createdAt,value
2022-11-26T00:01:22.712Z,7.52
2022-11-26T00:03:49.601Z,7.49
2022-11-26T00:06:38.773Z,7.39
2022-11-26T00:09:14.013Z,7.39
2022-11-26T00:11:41.405Z,7.38
2022-11-26T00:14:15.729Z,7.34
2022-11-26T00:16:43.618Z,7.24
2022-11-26T00:19:10.768Z,7.19
2022-11-26T00:21:41.132Z,7.26
2022-11-26T00:24:27.579Z,7.18
2022-11-26T00:26:57.593Z,7.12
2022-11-26T00:29:24.137Z,7.22
2022-11-26T00:31:50.860Z,7.16
2022-11-26T00:34:17.375Z,7.20
2022-11-26T00:36:44.529Z,7.14
2022-11-26T00:39:21.337Z,6.95
2022-11-26T00:41:52.093Z,6.88
2022-11-26T00:44:22.803Z,6.73
2022-11-26T00:46:49.742Z,6.72
2022-11-26T00:49:17.332Z,6.79
2022-11-26T00:51:45.956Z,6.91
2022-11-26T00:54:16.469Z,6.94
2022-11-26T00:56:43.017Z,7.00
2022-11-26T00:59:20.820Z,6.96
2022-11-26T01:01:47.644Z,6.98
2022-11-26T01:04:14.603Z,6.87
2022-11-26T01:06:44.674Z,6.96
2022-11-26T01:09:19.660Z,7.01
2022-11-26T01:11:50.948Z,6.88
2022-11-26T01:14:22.747Z,6.63
2022-11-26T01:16:51.634Z,6.63
2022-11-26T01:19:18.110Z,6.70
2022-11-26T01:21:44.710Z,6.81
2022-11-26T01:24:11.202Z,6.80
2022-11-26T01:26:43.878Z,6.84
2022-11-26T01:29:17.376Z,6.77
2022-11-26T01:31:44.204Z,6.75
2022-11-26T01:34:10.797Z,6.64
2022-11-26T01:36:40.470Z,6.57
2022-11-26T01:39:16.801Z,6.53
2022-11-26T01:42:12.221Z,6.43
2022-11-26T01:44:39.014Z,6.47
2022-11-26T01:47:28.171Z,6.37
2022-11-26T01:50:28.857Z,6.28
2022-11-26T01:53:01.900Z,6.41
2022-11-26T01:55:37.928Z,6.51
2022-11-26T01:58:09.792Z,6.53
2022-11-26T02:00:36.320Z,6.45
2022-11-26T02:03:05.394Z,6.47
2022-11-26T02:05:42.401Z,6.29
2022-11-26T02:08:11.476Z,6.28
2022-11-26T02:10:37.992Z,6.44
2022-11-26T02:13:05.701Z,6.52
2022-11-26T02:15:49.864Z,6.38
2022-11-26T02:18:16.868Z,6.49
2022-11-26T02:21:00.929Z,6.60
2022-11-26T02:24:13.171Z,6.53
2022-11-26T02:27:12.699Z,6.60
2022-11-26T02:30:09.300Z,6.61
2022-11-26T02:32:54.355Z,6.67
2022-11-26T02:35:37.512Z,6.58
2022-11-26T02:38:13.712Z,6.50
2022-11-26T02:40:40.184Z,6.54
2022-11-26T02:43:06.648Z,6.67
2022-11-26T02:45:42.600Z,6.74
2022-11-26T02:48:20.034Z,6.79
2022-11-26T02:50:53.117Z,6.77
2022-11-26T02:53:23.415Z,6.87
2022-11-26T02:56:06.756Z,6.99
2022-11-26T02:58:34.582Z,7.14
2022-11-26T03:01:09.383Z,7.14
2022-11-26T03:03:46.344Z,7.06
2022-11-26T03:06:16.284Z,7.10
2022-11-26T03:08:45.353Z,7.13
2022-11-26T03:11:12.727Z,7.21
2022-11-26T03:13:39.241Z,7.25
2022-11-26T03:16:05.967Z,7.18
2022-11-26T03:18:32.495Z,7.05
2022-11-26T03:20:59.875Z,7.02
2022-11-26T03:23:26.313Z,7.12
2022-11-26T03:25:52.775Z,7.11
2022-11-26T03:28:19.317Z,7.01
2022-11-26T03:30:45.769Z,7.08
2022-11-26T03:33:12.231Z,7.15
2022-11-26T03:35:38.687Z,7.11
2022-11-26T03:38:05.243Z,6.97
2022-11-26T03:40:31.848Z,6.89
2022-11-26T03:42:58.331Z,7.00
2022-11-26T03:45:25.594Z,7.10
2022-11-26T03:47:52.125Z,7.16
2022-11-26T03:50:18.597Z,7.07
2022-11-26T03:52:45.025Z,7.05
2022-11-26T03:55:11.620Z,7.13
2022-11-26T03:57:38.140Z,7.14
2022-11-26T04:00:06.673Z,7.22
2022-11-26T04:02:33.137Z,7.32
2022-11-26T04:04:59.621Z,7.34
2022-11-26T04:07:26.131Z,7.28
2022-11-26T04:09:52.674Z,7.34
2022-11-26T04:12:19.172Z,7.41
2022-11-26T04:14:45.621Z,7.26
2022-11-26T04:17:12.152Z,7.22
2022-11-26T04:19:38.568Z,7.04
2022-11-26T04:22:04.991Z,7.10
2022-11-26T04:24:31.458Z,7.07
2022-11-26T04:26:57.916Z,7.03
2022-11-26T04:29:24.385Z,6.98
2022-11-26T04:31:51.098Z,6.86
2022-11-26T04:34:17.573Z,6.84
2022-11-26T04:36:44.137Z,6.87
2022-11-26T04:39:11.051Z,6.93
2022-11-26T04:41:37.492Z,7.02
2022-11-26T04:44:04.667Z,7.09
2022-11-26T04:46:31.152Z,7.21
2022-11-26T04:48:57.593Z,7.25
2022-11-26T04:51:24.104Z,7.19
2022-11-26T04:53:54.533Z,7.08
2022-11-26T04:56:23.413Z,7.14
2022-11-26T04:58:49.964Z,7.20
2022-11-26T05:01:16.523Z,7.24
2022-11-26T05:03:43.036Z,7.22
2022-11-26T05:06:10.714Z,7.26
2022-11-26T05:08:37.356Z,7.35
2022-11-26T05:11:03.950Z,7.45
2022-11-26T05:13:30.564Z,7.45
2022-11-26T05:15:57.111Z,7.44
2022-11-26T05:18:23.785Z,7.41
2022-11-26T05:20:50.242Z,7.38
2022-11-26T05:23:16.898Z,7.36
2022-11-26T05:25:43.394Z,7.41
2022-11-26T05:28:10.365Z,7.33
2022-11-26T05:30:37.421Z,7.28
2022-11-26T05:33:03.989Z,7.34
2022-11-26T05:35:30.415Z,7.38
2022-11-26T05:37:57.016Z,7.46
2022-11-26T05:40:23.535Z,7.42
2022-11-26T05:42:50.072Z,7.48
2022-11-26T05:45:16.565Z,7.58
2022-11-26T05:47:43.233Z,7.59
2022-11-26T05:50:10.510Z,7.64
2022-11-26T05:52:37.036Z,7.67
2022-11-26T05:55:04.090Z,7.63
2022-11-26T05:57:30.552Z,7.49
2022-11-26T05:59:57.065Z,7.50
2022-11-26T06:02:23.798Z,7.44
2022-11-26T06:04:50.363Z,7.41
2022-11-26T06:07:16.829Z,7.27
2022-11-26T06:09:43.384Z,7.30
2022-11-26T06:12:09.878Z,7.34
2022-11-26T06:14:40.401Z,7.37
2022-11-26T06:17:09.369Z,7.38
2022-11-26T06:19:35.847Z,7.40
2022-11-26T06:22:02.425Z,7.38
2022-11-26T06:24:29.233Z,7.48
2022-11-26T06:26:55.733Z,7.55
2022-11-26T06:29:26.421Z,7.46
2022-11-26T06:31:54.621Z,7.43
2022-11-26T06:34:21.274Z,7.49
2022-11-26T06:36:47.836Z,7.55
2022-11-26T06:39:14.339Z,7.54
2022-11-26T06:41:40.897Z,7.57
2022-11-26T06:44:07.369Z,7.60
2022-11-26T06:46:35.282Z,7.61
2022-11-26T06:49:05.363Z,7.64
2022-11-26T06:51:32.900Z,7.50
2022-11-26T06:53:59.481Z,7.41
2022-11-26T06:56:26.053Z,7.45
2022-11-26T06:58:55.209Z,7.54
2022-11-26T07:01:25.969Z,7.53
2022-11-26T07:03:54.262Z,7.55
2022-11-26T07:06:33.138Z,7.39
2022-11-26T07:09:09.015Z,7.32
2022-11-26T07:11:38.358Z,7.34
2022-11-26T07:14:06.415Z,7.28
2022-11-26T07:16:33.842Z,7.31
2022-11-26T07:19:02.926Z,7.35
2022-11-26T07:21:31.000Z,7.39
2022-11-26T07:23:58.899Z,7.39
2022-11-26T07:26:25.367Z,7.32
2022-11-26T07:28:52.044Z,7.42
2022-11-26T07:31:22.265Z,7.50
2022-11-26T07:33:50.181Z,7.56
2022-11-26T07:36:24.199Z,7.63
2022-11-26T07:38:54.661Z,7.42
2022-11-26T07:41:21.793Z,7.31
2022-11-26T07:43:48.399Z,7.33
2022-11-26T07:46:19.657Z,7.43
2022-11-26T07:48:46.317Z,7.55
2022-11-26T07:51:22.722Z,7.55
2022-11-26T07:53:50.413Z,7.43
2022-11-26T07:56:18.298Z,7.40
2022-11-26T07:58:45.786Z,7.48
2022-11-26T08:01:17.879Z,7.41
2022-11-26T08:03:48.055Z,7.45
2022-11-26T08:06:20.048Z,7.49
2022-11-26T08:08:47.533Z,7.53
2022-11-26T08:11:21.428Z,7.60
2022-11-26T08:13:51.973Z,7.76
2022-11-26T08:16:18.540Z,7.79
2022-11-26T08:18:45.163Z,7.83
2022-11-26T08:21:11.912Z,7.82
2022-11-26T08:23:39.274Z,7.85
2022-11-26T08:26:25.046Z,7.72
2022-11-26T08:28:52.153Z,7.59
2022-11-26T08:31:19.273Z,7.50
2022-11-26T08:33:46.539Z,7.54
2022-11-26T08:36:13.378Z,7.57
2022-11-26T08:38:40.336Z,7.62
2022-11-26T08:41:13.275Z,7.71
2022-11-26T08:44:05.142Z,7.92
2022-11-26T08:46:27.099Z,7.86
2022-11-26T08:48:58.605Z,7.86
2022-11-26T08:51:25.616Z,7.92
2022-11-26T08:53:52.543Z,7.97
2022-11-26T08:56:19.387Z,7.91
2022-11-26T08:58:46.583Z,7.89
2022-11-26T09:01:22.536Z,7.93
2022-11-26T09:03:51.657Z,7.89
2022-11-26T09:06:20.921Z,7.73
2022-11-26T09:09:06.953Z,7.49
2022-11-26T09:11:37.018Z,7.27
2022-11-26T09:14:04.419Z,7.20
2022-11-26T09:16:31.790Z,7.28
2022-11-26T09:19:03.941Z,7.38
2022-11-26T09:21:30.463Z,7.47
2022-11-26T09:23:56.921Z,7.59
2022-11-26T09:26:25.299Z,7.60
2022-11-26T09:28:52.583Z,7.46
2022-11-26T09:31:19.685Z,7.47
2022-11-26T09:33:46.420Z,7.33
2022-11-26T09:36:15.227Z,7.24
2022-11-26T09:38:42.268Z,7.24
2022-11-26T09:41:30.116Z,7.16
2022-11-26T09:44:22.323Z,7.25
2022-11-26T09:47:14.216Z,7.34
2022-11-26T09:49:51.423Z,7.42
2022-11-26T09:52:22.440Z,7.51
2022-11-26T09:55:01.556Z,7.61
2022-11-26T09:58:00.327Z,7.61
2022-11-26T10:00:42.466Z,7.64
2022-11-26T10:03:25.740Z,7.75
2022-11-26T10:06:07.618Z,7.96
2022-11-26T10:08:39.820Z,8.04
2022-11-26T10:11:24.742Z,8.20
2022-11-26T10:14:29.381Z,8.09
2022-11-26T10:17:09.734Z,8.08
2022-11-26T10:19:50.732Z,8.00
2022-11-26T10:22:34.818Z,7.93
2022-11-26T10:25:04.304Z,7.81
2022-11-26T10:27:34.867Z,7.71
2022-11-26T10:30:16.330Z,7.71
2022-11-26T10:32:46.294Z,7.79
2022-11-26T10:35:21.615Z,7.71
2022-11-26T10:37:49.275Z,7.77
2022-11-26T10:40:25.949Z,7.86
2022-11-26T10:43:06.214Z,7.68
2022-11-26T10:45:40.239Z,7.87
2022-11-26T10:48:31.793Z,7.94
2022-11-26T10:51:00.086Z,7.90
2022-11-26T10:53:31.070Z,7.98
2022-11-26T10:56:06.975Z,8.04
2022-11-26T10:58:43.563Z,8.10
2022-11-26T11:01:15.261Z,7.75
2022-11-26T11:04:13.331Z,7.97
2022-11-26T11:06:44.309Z,8.14
2022-11-26T11:09:37.372Z,8.25
2022-11-26T11:12:23.585Z,8.19
2022-11-26T11:14:51.728Z,8.00
2022-11-26T11:17:30.349Z,7.89
2022-11-26T11:20:26.995Z,8.00
2022-11-26T11:23:06.911Z,8.01
2022-11-26T11:25:36.992Z,8.13
2022-11-26T11:28:12.651Z,8.02
2022-11-26T11:30:41.536Z,8.08
2022-11-26T11:33:24.214Z,8.09
2022-11-26T11:36:13.377Z,8.17
2022-11-26T11:38:58.397Z,8.12
2022-11-26T11:41:29.031Z,8.22
2022-11-26T11:44:16.309Z,8.22
2022-11-26T11:47:07.073Z,8.07
2022-11-26T11:49:49.945Z,7.99
2022-11-26T11:52:47.840Z,8.02
2022-11-26T11:55:32.337Z,8.10
2022-11-26T11:58:38.069Z,8.08
2022-11-26T12:01:30.833Z,8.05
2022-11-26T12:05:03.441Z,8.00
2022-11-26T12:07:46.557Z,8.10
2022-11-26T12:10:43.643Z,8.09
2022-11-26T12:13:15.116Z,8.02
2022-11-26T12:16:02.981Z,7.87
2022-11-26T12:18:45.350Z,7.82
2022-11-26T12:21:16.462Z,7.75
2022-11-26T12:24:07.002Z,7.87
2022-11-26T12:27:04.591Z,7.95
2022-11-26T12:30:01.081Z,7.86
2022-11-26T12:32:40.962Z,7.87
2022-11-26T12:35:38.480Z,7.88
2022-11-26T12:38:27.242Z,7.86
2022-11-26T12:41:04.842Z,7.91
2022-11-26T12:44:13.490Z,7.83
2022-11-26T12:46:52.252Z,7.88
2022-11-26T12:49:47.868Z,7.85
2022-11-26T12:52:32.662Z,8.00
2022-11-26T12:55:20.618Z,8.03
2022-11-26T12:57:58.905Z,8.05
2022-11-26T13:00:36.710Z,8.13
2022-11-26T13:03:06.955Z,8.19
2022-11-26T13:05:55.904Z,8.14
2022-11-26T13:08:32.891Z,8.18
2022-11-26T13:11:57.112Z,8.08
2022-11-26T13:14:47.577Z,8.05
2022-11-26T13:17:18.522Z,8.12
2022-11-26T13:19:57.096Z,8.12
2022-11-26T13:23:05.261Z,8.15
2022-11-26T13:25:47.568Z,7.81
2022-11-26T13:28:18.307Z,7.92
2022-11-26T13:31:38.018Z,7.75
2022-11-26T13:34:33.797Z,7.85
2022-11-26T13:37:36.113Z,7.82
2022-11-26T13:40:46.228Z,7.93
2022-11-26T13:44:08.400Z,7.84
2022-11-26T13:46:46.866Z,7.96
2022-11-26T13:49:38.290Z,8.03
2022-11-26T13:52:11.807Z,8.01
2022-11-26T13:55:04.577Z,8.14
2022-11-26T13:57:59.364Z,8.20
2022-11-26T14:00:35.488Z,8.20
2022-11-26T14:03:03.675Z,8.22
2022-11-26T14:05:48.756Z,8.23
2022-11-26T14:08:43.845Z,8.19
2022-11-26T14:11:12.497Z,8.22
2022-11-26T14:13:39.239Z,8.26
2022-11-26T14:16:10.621Z,8.23
2022-11-26T14:18:49.386Z,8.09
2022-11-26T14:21:17.740Z,7.99
2022-11-26T14:23:46.482Z,7.92
2022-11-26T14:26:28.105Z,7.76
2022-11-26T14:29:13.318Z,7.67
2022-11-26T14:31:51.104Z,7.69
2022-11-26T14:34:38.667Z,7.71
2022-11-26T14:37:15.390Z,7.75
2022-11-26T14:39:42.310Z,7.78
2022-11-26T14:42:16.903Z,7.78
2022-11-26T14:44:44.125Z,7.61
2022-11-26T14:47:21.901Z,7.57
2022-11-26T14:49:55.681Z,7.58
2022-11-26T14:52:33.323Z,7.52
2022-11-26T14:55:06.972Z,7.50
2022-11-26T14:58:09.772Z,7.40
2022-11-26T15:00:37.343Z,7.32
2022-11-26T15:03:04.567Z,7.48
2022-11-26T15:05:34.069Z,7.53
2022-11-26T15:08:07.306Z,7.53
2022-11-26T15:10:52.344Z,7.36
2022-11-26T15:13:46.383Z,7.36
2022-11-26T15:16:36.093Z,7.48
2022-11-26T15:19:05.845Z,7.55
2022-11-26T15:21:33.813Z,7.57
2022-11-26T15:24:07.924Z,7.59
2022-11-26T15:26:36.726Z,7.44
2022-11-26T15:29:31.966Z,7.39
2022-11-26T15:31:59.257Z,7.31
2022-11-26T15:34:28.912Z,7.21
2022-11-26T15:36:55.565Z,7.12
2022-11-26T15:39:31.628Z,7.08
2022-11-26T15:42:06.414Z,7.18
2022-11-26T15:44:42.104Z,7.22
2022-11-26T15:47:22.043Z,7.20
2022-11-26T15:49:55.209Z,7.23
2022-11-26T15:52:32.422Z,7.10
2022-11-26T15:55:12.807Z,7.12
2022-11-26T15:57:41.053Z,7.20
2022-11-26T16:00:53.004Z,7.18
2022-11-26T16:03:39.492Z,7.06
2022-11-26T16:06:10.367Z,7.06
2022-11-26T16:08:39.182Z,7.06
2022-11-26T16:11:21.497Z,6.93
2022-11-26T16:13:47.975Z,6.81
2022-11-26T16:16:25.158Z,6.57
2022-11-26T16:18:59.159Z,6.36
2022-11-26T16:21:33.157Z,6.25
2022-11-26T16:24:21.562Z,6.18
2022-11-26T16:27:01.737Z,6.06
2022-11-26T16:29:30.212Z,6.12
2022-11-26T16:31:57.030Z,6.16
2022-11-26T16:34:27.089Z,6.18
2022-11-26T16:37:22.532Z,6.12
2022-11-26T16:39:52.601Z,5.97
2022-11-26T16:42:23.414Z,5.82
2022-11-26T16:44:50.378Z,5.66
2022-11-26T16:47:31.905Z,5.55
2022-11-26T16:49:58.330Z,5.53
2022-11-26T16:52:24.853Z,5.42
2022-11-26T16:54:52.449Z,5.29
2022-11-26T16:57:23.110Z,5.34
2022-11-26T17:00:05.087Z,5.16
2022-11-26T17:02:33.356Z,5.07
2022-11-26T17:05:00.133Z,4.94
2022-11-26T17:07:37.978Z,4.75
2022-11-26T17:10:05.921Z,4.85
2022-11-26T17:12:32.370Z,4.89
2022-11-26T17:14:58.854Z,4.93
2022-11-26T17:17:29.285Z,4.91
2022-11-26T17:19:56.766Z,4.73
2022-11-26T17:22:24.717Z,4.74
2022-11-26T17:24:51.701Z,4.83
2022-11-26T17:27:21.210Z,4.90
2022-11-26T17:29:47.879Z,4.99
2022-11-26T17:32:17.704Z,5.09
2022-11-26T17:34:46.197Z,5.16
2022-11-26T17:37:19.863Z,5.10
2022-11-26T17:39:46.433Z,4.86
2022-11-26T17:42:12.912Z,4.66
2022-11-26T17:44:39.388Z,4.54
2022-11-26T17:47:17.299Z,4.45
2022-11-26T17:49:45.776Z,4.58
2022-11-26T17:52:13.476Z,4.70
2022-11-26T17:54:40.019Z,4.81
2022-11-26T17:57:06.799Z,4.91
2022-11-26T17:59:33.417Z,4.78
2022-11-26T18:02:01.660Z,4.81
2022-11-26T18:04:28.410Z,4.86
2022-11-26T18:07:06.749Z,4.68
2022-11-26T18:09:34.509Z,4.60
2022-11-26T18:12:02.726Z,4.56
2022-11-26T18:14:29.312Z,4.48
2022-11-26T18:16:55.945Z,4.43
2022-11-26T18:19:23.578Z,4.52
2022-11-26T18:21:51.329Z,4.65
2022-11-26T18:24:18.255Z,4.66
2022-11-26T18:26:44.887Z,4.55
2022-11-26T18:29:12.160Z,4.60
2022-11-26T18:31:40.103Z,4.66
2022-11-26T18:34:08.185Z,4.66
2022-11-26T18:36:34.856Z,4.71
2022-11-26T18:39:05.786Z,4.71
2022-11-26T18:41:33.065Z,4.62
2022-11-26T18:44:01.576Z,4.59
2022-11-26T18:46:29.081Z,4.58
2022-11-26T18:48:57.601Z,4.56
2022-11-26T18:51:24.832Z,4.48
2022-11-26T18:53:51.315Z,4.42
2022-11-26T18:56:22.658Z,4.31
2022-11-26T18:58:50.513Z,4.36
2022-11-26T19:01:26.394Z,4.24
2022-11-26T19:03:53.831Z,4.11
2022-11-26T19:06:27.479Z,3.98
2022-11-26T19:09:00.779Z,3.92
2022-11-26T19:11:28.795Z,3.91
2022-11-26T19:13:57.039Z,3.92
2022-11-26T19:16:25.210Z,3.82
2022-11-26T19:18:52.087Z,3.71
2022-11-26T19:21:26.440Z,3.50
2022-11-26T19:23:55.640Z,3.41
2022-11-26T19:26:23.436Z,3.29
2022-11-26T19:28:50.813Z,3.38
2022-11-26T19:31:22.131Z,3.33
2022-11-26T19:33:54.684Z,3.35
2022-11-26T19:36:22.345Z,3.32
2022-11-26T19:38:55.850Z,3.19
2022-11-26T19:41:25.802Z,3.26
2022-11-26T19:43:52.877Z,3.26
2022-11-26T19:46:22.700Z,3.24
2022-11-26T19:48:51.312Z,3.25
2022-11-26T19:51:21.226Z,3.28
2022-11-26T19:53:50.693Z,3.40
2022-11-26T19:56:24.395Z,3.57
2022-11-26T19:58:53.824Z,3.57
2022-11-26T20:01:22.077Z,3.54
2022-11-26T20:03:49.815Z,3.51
2022-11-26T20:06:26.150Z,3.65
2022-11-26T20:08:53.927Z,3.80
2022-11-26T20:11:20.476Z,3.88
2022-11-26T20:13:49.252Z,3.95
2022-11-26T20:16:25.779Z,3.81
2022-11-26T20:18:53.260Z,3.61
2022-11-26T20:21:25.480Z,3.61
2022-11-26T20:23:53.725Z,3.56
2022-11-26T20:26:37.064Z,3.60
2022-11-26T20:29:08.832Z,3.69
2022-11-26T20:31:39.492Z,3.82
2022-11-26T20:34:06.180Z,3.83
2022-11-26T20:36:32.699Z,3.85
2022-11-26T20:39:02.061Z,3.79
2022-11-26T20:41:29.867Z,3.78
2022-11-26T20:43:59.421Z,3.72
2022-11-26T20:46:28.522Z,3.79
2022-11-26T20:48:56.343Z,3.82
2022-11-26T20:51:23.504Z,3.71
2022-11-26T20:53:51.984Z,3.79
2022-11-26T20:56:20.996Z,3.92
2022-11-26T20:58:49.089Z,3.99
2022-11-26T21:01:20.229Z,3.93
2022-11-26T21:03:47.385Z,3.96
2022-11-26T21:06:16.865Z,4.06
2022-11-26T21:08:43.677Z,4.15
2022-11-26T21:11:11.816Z,4.15
2022-11-26T21:13:39.426Z,4.16
2022-11-26T21:16:11.493Z,4.11
2022-11-26T21:18:38.264Z,4.20
2022-11-26T21:21:11.073Z,4.29
2022-11-26T21:23:39.555Z,4.38
2022-11-26T21:26:08.346Z,4.36
2022-11-26T21:28:35.348Z,4.31
2022-11-26T21:31:11.491Z,4.35
2022-11-26T21:33:37.980Z,4.43
2022-11-26T21:36:11.034Z,4.32
2022-11-26T21:38:38.437Z,4.35
2022-11-26T21:41:13.029Z,4.33
2022-11-26T21:43:40.934Z,4.40
2022-11-26T21:46:12.916Z,4.46
2022-11-26T21:48:39.473Z,4.45
2022-11-26T21:51:16.433Z,4.38
2022-11-26T21:53:44.251Z,4.48
2022-11-26T21:56:21.324Z,4.52
2022-11-26T21:58:49.512Z,4.62
2022-11-26T22:01:23.293Z,4.59
2022-11-26T22:03:53.967Z,4.59
2022-11-26T22:06:22.836Z,4.63
2022-11-26T22:08:50.025Z,4.76
2022-11-26T22:11:21.634Z,4.86
2022-11-26T22:13:48.855Z,4.93
2022-11-26T22:16:19.551Z,4.94
2022-11-26T22:18:48.260Z,4.82
2022-11-26T22:21:27.570Z,4.76
2022-11-26T22:23:54.015Z,4.76
2022-11-26T22:26:21.435Z,4.66
2022-11-26T22:28:49.665Z,4.76
2022-11-26T22:31:30.478Z,4.77
2022-11-26T22:34:10.372Z,4.83
2022-11-26T22:36:38.837Z,4.80
2022-11-26T22:39:10.898Z,4.83
2022-11-26T22:41:40.321Z,4.92
2022-11-26T22:44:07.332Z,4.89
2022-11-26T22:46:34.307Z,4.93
2022-11-26T22:49:02.579Z,4.92
2022-11-26T22:51:32.517Z,4.94
2022-11-26T22:54:02.221Z,4.91
2022-11-26T22:56:30.184Z,4.91
2022-11-26T22:58:57.481Z,4.91
2022-11-26T23:01:32.030Z,4.93
2022-11-26T23:04:01.921Z,4.88
2022-11-26T23:06:31.258Z,4.95
2022-11-26T23:08:59.088Z,4.92
2022-11-26T23:11:32.701Z,4.96
2022-11-26T23:13:59.331Z,4.79
2022-11-26T23:16:26.981Z,4.73
2022-11-26T23:18:56.678Z,4.67
2022-11-26T23:21:29.323Z,4.57
2022-11-26T23:23:56.253Z,4.66
2022-11-26T23:26:27.953Z,4.58
2022-11-26T23:28:56.965Z,4.66
2022-11-26T23:31:30.994Z,4.59
2022-11-26T23:33:58.128Z,4.55
2022-11-26T23:36:26.661Z,4.61
2022-11-26T23:38:53.693Z,4.55
2022-11-26T23:41:20.469Z,4.53
2022-11-26T23:43:47.471Z,4.57
2022-11-26T23:46:35.252Z,4.59
2022-11-26T23:49:01.852Z,4.68
2022-11-26T23:51:31.258Z,4.63
2022-11-26T23:53:58.253Z,4.65
2022-11-26T23:56:31.661Z,4.67
2022-11-26T23:59:03.784Z,4.59
